OPKC

Jinnah International Airport

Karachi, Pakistan
METAR OPKC 202155Z 24006KT 6000 SCT020 29/24 Q0998 NOSIG
Observed Flight Rules
Jul-20 @ 21:55 UTC (27 minutes ago) Marginal Visual Flight Rules
Wind Visibility Clouds
240° at 6 knots 6,003 meters
  • Scattered at 2,000' AGL
Temperatures Readings
Current 29°C / 84°F
Dewpoint 24°C / 75°F
Humidity 74%
Altimeter 29.47" Hg
Pressure 998 hPa
Elevation 22
METAR OPKC 202155Z 24006KT 6000 SCT020 29/24 Q0998 NOSIG
Observed Flight Rules
Jul-20 @ 21:55 UTC
(27 minutes ago)
MVFR
Wind Visibility
240° at 6 knots 6,003 meters
Clouds
  • Scattered at 2,000' AGL
Temperature Dewpoint
29°C / 84°F 24°C / 75°F
Humidity Altimeter Pressure
74% 29.47" Hg 998 hPa